Terminal Aerodrome Forecast
Issued by NWS

Home | Current Version | Previous Version | Text Only | Print | Product List | Glossary On
Versions: 1 2 3 4 5 6 7 8 9 10 11 12 13 14 15 16 17 18 19 20 21 22 23 24 25 26 27 28 29 30 31 32 33
000
FTAK31 PAFA 062339
TAFAFA
TAF
PAFA 062339Z 0700/0806 10009KT 6SM FU FEW060 SCT160
     FM070600 VRB04KT 6SM FU SCT060 BKN160 BKN200
     FM071800 23005KT 6SM FU VCSH SCT050 BKN100
     FM080000 26008KT 6SM -SHRA FU OVC050=

USA.gov is the U.S. government's official web portal to all federal, state and local government web resources and services.